createdAt,value
2018-03-11T00:01:18.457Z,5.00
2018-03-11T00:03:46.432Z,4.80
2018-03-11T00:06:14.445Z,4.70
2018-03-11T00:08:41.492Z,4.00
2018-03-11T00:11:10.378Z,4.20
2018-03-11T00:13:37.446Z,4.30
2018-03-11T00:16:04.493Z,4.50
2018-03-11T00:18:33.435Z,4.70
2018-03-11T00:20:59.891Z,4.40
2018-03-11T00:23:27.380Z,4.40
2018-03-11T00:25:54.419Z,4.40
2018-03-11T00:28:21.519Z,4.20
2018-03-11T00:30:48.556Z,4.30
2018-03-11T00:33:15.594Z,3.80
2018-03-11T00:35:42.685Z,3.80
2018-03-11T00:38:09.708Z,3.80
2018-03-11T00:40:36.737Z,4.00
2018-03-11T00:45:31.858Z,4.40
2018-03-11T00:47:58.909Z,4.20
2018-03-11T00:50:25.998Z,4.30
2018-03-11T00:52:53.890Z,4.20
2018-03-11T00:55:20.922Z,4.40
2018-03-11T00:57:48.015Z,4.60
2018-03-11T01:00:15.038Z,4.60
2018-03-11T01:02:42.056Z,4.70
2018-03-11T01:05:09.134Z,4.50
2018-03-11T01:10:06.621Z,4.30
2018-03-11T01:15:13.016Z,4.10
2018-03-11T01:17:40.087Z,4.30
2018-03-11T01:20:07.122Z,4.40
2018-03-11T01:22:35.079Z,4.20
2018-03-11T01:25:03.461Z,3.80
2018-03-11T01:27:30.466Z,3.40
2018-03-11T01:32:40.849Z,3.60
2018-03-11T01:35:07.878Z,3.70
2018-03-11T01:37:34.926Z,3.60
2018-03-11T01:40:02.959Z,3.60
2018-03-11T01:42:29.999Z,3.70
2018-03-11T01:44:57.033Z,3.80
2018-03-11T01:47:24.117Z,3.80
2018-03-11T01:49:52.080Z,4.10
2018-03-11T01:52:19.116Z,4.40
2018-03-11T01:54:46.187Z,4.10
2018-03-11T01:57:13.218Z,4.20
2018-03-11T01:59:40.244Z,3.90
2018-03-11T02:02:07.318Z,3.90
2018-03-11T02:04:34.344Z,4.00
2018-03-11T02:07:01.376Z,4.20
2018-03-11T02:09:28.451Z,4.40
2018-03-11T02:11:56.420Z,4.30
2018-03-11T02:14:23.442Z,3.90
2018-03-11T02:16:50.961Z,3.90
2018-03-11T02:19:17.989Z,4.00
2018-03-11T02:21:45.019Z,4.40
2018-03-11T02:24:12.104Z,3.80
2018-03-11T02:26:39.136Z,3.70
2018-03-11T02:29:06.169Z,3.90
2018-03-11T02:31:33.256Z,3.60
2018-03-11T02:34:00.287Z,3.70
2018-03-11T02:36:27.311Z,3.60
2018-03-11T02:38:54.399Z,3.50
2018-03-11T02:41:21.415Z,3.50
2018-03-11T02:46:15.629Z,3.90
2018-03-11T02:48:42.666Z,4.60
2018-03-11T02:51:09.680Z,4.50
2018-03-11T02:53:36.758Z,4.50
2018-03-11T02:58:45.313Z,3.60
2018-03-11T03:01:12.334Z,3.30
2018-03-11T03:03:39.382Z,3.40
2018-03-11T03:06:06.443Z,3.90
2018-03-11T03:08:35.252Z,3.90
2018-03-11T03:11:02.275Z,3.90
2018-03-11T03:13:29.370Z,3.80
2018-03-11T03:15:56.399Z,3.70
2018-03-11T03:18:24.243Z,4.00
2018-03-11T03:20:51.320Z,4.10
2018-03-11T03:23:18.344Z,4.10
2018-03-11T03:25:45.373Z,4.20
2018-03-11T03:28:12.460Z,4.20
2018-03-11T03:30:39.545Z,3.80
2018-03-11T03:33:06.515Z,3.80
2018-03-11T03:35:33.623Z,3.60
2018-03-11T03:38:01.580Z,3.70
2018-03-11T03:40:29.062Z,4.10
2018-03-11T03:42:56.135Z,4.50
2018-03-11T03:45:23.150Z,4.40
2018-03-11T03:47:50.177Z,4.50
2018-03-11T03:50:17.248Z,4.20
2018-03-11T03:55:11.381Z,4.00
2018-03-11T03:57:38.747Z,3.60
2018-03-11T04:00:06.603Z,3.80
2018-03-11T04:02:33.631Z,3.80
2018-03-11T04:05:00.704Z,3.40
2018-03-11T04:07:27.724Z,3.20
2018-03-11T04:09:54.749Z,3.20
2018-03-11T04:14:48.933Z,3.20
2018-03-11T04:17:15.968Z,3.50
2018-03-11T04:22:21.823Z,3.00
2018-03-11T04:24:48.909Z,3.10
2018-03-11T04:27:15.941Z,3.00
2018-03-11T04:29:42.957Z,3.20
2018-03-11T04:32:10.048Z,3.50
2018-03-11T04:34:38.230Z,3.70
2018-03-11T04:37:06.196Z,3.90
2018-03-11T04:39:33.269Z,4.00
2018-03-11T04:42:00.299Z,4.00
2018-03-11T04:44:27.403Z,3.60
2018-03-11T04:46:54.424Z,3.60
2018-03-11T04:49:24.294Z,3.80
2018-03-11T04:51:48.463Z,3.60
2018-03-11T04:54:15.558Z,3.50
2018-03-11T04:56:42.601Z,3.30
2018-03-11T04:59:09.619Z,2.90
2018-03-11T05:01:36.696Z,2.80
2018-03-11T05:04:03.705Z,2.90
2018-03-11T05:06:30.730Z,2.70
2018-03-11T05:08:57.803Z,2.90
2018-03-11T05:11:25.652Z,2.70
2018-03-11T05:13:52.675Z,2.90
2018-03-11T05:16:19.764Z,3.00
2018-03-11T05:18:48.979Z,3.20
2018-03-11T05:21:16.002Z,3.20
2018-03-11T05:23:43.085Z,3.30
2018-03-11T05:26:10.100Z,3.30
2018-03-11T05:28:37.127Z,3.50
2018-03-11T05:31:05.161Z,3.70
2018-03-11T05:33:32.186Z,3.60
2018-03-11T05:35:59.211Z,3.70
2018-03-11T05:38:27.179Z,3.80
2018-03-11T05:40:55.167Z,3.90
2018-03-11T05:46:00.715Z,3.20
2018-03-11T05:48:27.735Z,3.50
2018-03-11T05:50:54.776Z,3.60
2018-03-11T05:53:21.865Z,3.80
2018-03-11T05:55:48.908Z,3.00
2018-03-11T05:58:16.826Z,3.10
2018-03-11T06:00:43.911Z,2.70
2018-03-11T06:03:11.954Z,2.80
2018-03-11T06:05:38.999Z,3.70
2018-03-11T06:08:06.104Z,3.40
2018-03-11T06:10:33.182Z,3.80
2018-03-11T06:13:00.168Z,4.10
2018-03-11T06:15:27.241Z,4.10
2018-03-11T06:17:54.327Z,4.30
2018-03-11T06:23:04.151Z,5.20
2018-03-11T06:25:32.056Z,4.30
2018-03-11T06:27:59.079Z,4.10
2018-03-11T06:30:26.177Z,4.10
2018-03-11T06:32:55.494Z,4.70
2018-03-11T06:35:22.523Z,4.20
2018-03-11T06:37:49.607Z,4.10
2018-03-11T06:40:16.656Z,4.10
2018-03-11T06:42:43.702Z,3.60
2018-03-11T06:45:10.841Z,3.80
2018-03-11T06:47:37.864Z,3.80
2018-03-11T06:50:04.889Z,4.00
2018-03-11T06:52:31.966Z,3.50
2018-03-11T06:54:58.977Z,3.70
2018-03-11T06:57:25.993Z,3.90
2018-03-11T07:02:21.034Z,4.40
2018-03-11T07:04:48.059Z,4.40
2018-03-11T07:09:42.253Z,4.20
2018-03-11T07:12:09.531Z,4.20
2018-03-11T07:14:36.606Z,4.20
2018-03-11T07:17:03.630Z,4.20
2018-03-11T07:19:31.546Z,4.30
2018-03-11T07:21:58.618Z,4.20
2018-03-11T07:24:26.574Z,4.30
2018-03-11T07:26:53.588Z,4.70
2018-03-11T07:29:20.673Z,4.30
2018-03-11T07:31:47.694Z,4.50
2018-03-11T07:34:14.720Z,4.70
2018-03-11T07:36:41.806Z,4.40
2018-03-11T07:39:08.827Z,4.60
2018-03-11T07:41:35.841Z,5.30
2018-03-11T07:44:02.951Z,4.90
2018-03-11T07:46:29.974Z,4.80
2018-03-11T07:51:35.960Z,4.60
2018-03-11T07:54:02.988Z,4.30
2018-03-11T07:56:30.006Z,4.30
2018-03-11T07:58:57.137Z,4.60
2018-03-11T08:01:24.182Z,4.80
2018-03-11T08:03:52.161Z,4.90
2018-03-11T08:06:19.245Z,5.10
2018-03-11T08:08:46.253Z,5.10
2018-03-11T08:11:13.279Z,5.00
2018-03-11T08:13:40.351Z,5.10
2018-03-11T08:16:08.333Z,5.30
2018-03-11T08:18:35.358Z,5.40
2018-03-11T08:21:02.431Z,5.40
2018-03-11T08:23:29.454Z,5.40
2018-03-11T08:25:56.482Z,5.40
2018-03-11T08:28:23.603Z,5.30
2018-03-11T08:30:50.606Z,5.10
2018-03-11T08:33:17.658Z,5.40
2018-03-11T08:35:44.747Z,5.90
2018-03-11T08:38:11.766Z,5.80
2018-03-11T08:40:38.877Z,5.90
2018-03-11T08:45:48.535Z,5.90
2018-03-11T08:48:17.116Z,6.30
2018-03-11T08:50:44.926Z,7.60
2018-03-11T08:53:13.910Z,6.30
2018-03-11T08:55:42.228Z,6.40
2018-03-11T08:58:08.828Z,6.50
2018-03-11T09:03:03.000Z,6.30
2018-03-11T09:05:30.017Z,6.60
2018-03-11T09:07:57.054Z,6.90
2018-03-11T09:10:24.180Z,6.80
2018-03-11T09:12:51.173Z,7.70
2018-03-11T09:15:18.200Z,8.60
2018-03-11T09:17:45.277Z,7.90
2018-03-11T09:20:12.311Z,7.70
2018-03-11T09:22:39.706Z,8.00
2018-03-11T09:27:34.630Z,9.50
2018-03-11T09:30:01.648Z,10.10
2018-03-11T09:32:28.759Z,8.40
2018-03-11T09:34:56.603Z,8.40
2018-03-11T09:37:23.621Z,8.60
2018-03-11T09:39:50.698Z,9.20
2018-03-11T09:42:17.719Z,8.80
2018-03-11T09:44:44.741Z,9.00
2018-03-11T09:47:11.824Z,9.20
2018-03-11T09:52:18.891Z,9.40
2018-03-11T09:54:45.909Z,9.30
2018-03-11T09:57:18.108Z,9.20
2018-03-11T09:59:45.203Z,9.50
2018-03-11T10:02:12.202Z,10.00
2018-03-11T10:07:06.400Z,9.90
2018-03-11T10:09:33.420Z,9.90
2018-03-11T10:12:00.444Z,10.00
2018-03-11T10:14:31.020Z,9.20
2018-03-11T10:16:57.787Z,9.00
2018-03-11T10:19:24.810Z,9.10
2018-03-11T10:21:51.905Z,9.40
2018-03-11T10:24:18.888Z,9.30
2018-03-11T10:26:45.909Z,9.10
2018-03-11T10:29:12.988Z,9.10
2018-03-11T10:34:07.103Z,9.10
2018-03-11T10:36:34.169Z,9.30
2018-03-11T10:39:01.178Z,8.90
2018-03-11T10:41:28.189Z,8.60
2018-03-11T10:43:55.268Z,8.90
2018-03-11T10:48:50.226Z,9.50
2018-03-11T10:51:17.318Z,10.30
2018-03-11T10:56:11.447Z,12.00
2018-03-11T10:58:38.514Z,12.20
2018-03-11T11:01:05.527Z,12.60
2018-03-11T11:03:32.539Z,12.90
2018-03-11T11:05:59.618Z,13.10
2018-03-11T11:08:26.665Z,13.10
2018-03-11T11:10:53.686Z,13.40
2018-03-11T11:15:57.072Z,13.80
2018-03-11T11:18:24.143Z,13.90
2018-03-11T11:20:51.212Z,14.00
2018-03-11T11:23:18.192Z,14.00
2018-03-11T11:25:45.262Z,14.10
2018-03-11T11:28:12.284Z,14.10
2018-03-11T11:30:39.370Z,14.00
2018-03-11T11:33:06.382Z,13.10
2018-03-11T11:35:33.956Z,13.60
2018-03-11T11:38:00.972Z,13.50
2018-03-11T11:40:31.207Z,13.60
2018-03-11T11:42:58.225Z,13.40
2018-03-11T11:45:25.243Z,13.70
2018-03-11T11:47:52.318Z,13.90
2018-03-11T11:50:19.333Z,14.20
2018-03-11T11:55:13.512Z,15.20
2018-03-11T11:57:40.521Z,15.10
2018-03-11T12:00:07.541Z,15.40
2018-03-11T12:02:34.616Z,15.30
2018-03-11T12:05:01.630Z,15.40
2018-03-11T12:07:28.657Z,15.50
2018-03-11T12:09:55.736Z,15.90
2018-03-11T12:12:22.753Z,16.30
2018-03-11T12:17:16.951Z,16.10
2018-03-11T12:19:43.976Z,16.40
2018-03-11T12:22:11.936Z,16.10
2018-03-11T12:24:39.007Z,16.30
2018-03-11T12:27:06.033Z,16.30
2018-03-11T12:29:33.058Z,16.30
2018-03-11T12:32:00.141Z,16.30
2018-03-11T12:34:27.212Z,16.40
2018-03-11T12:39:33.641Z,16.20
2018-03-11T12:42:00.705Z,16.40
2018-03-11T12:44:27.712Z,16.50
2018-03-11T12:46:55.537Z,16.30
2018-03-11T12:49:22.564Z,15.70
2018-03-11T12:51:49.606Z,15.50
2018-03-11T12:54:16.684Z,15.40
2018-03-11T12:56:43.717Z,15.50
2018-03-11T13:01:37.887Z,15.30
2018-03-11T13:04:04.907Z,15.40
2018-03-11T13:06:31.937Z,15.40
2018-03-11T13:08:59.039Z,15.40
2018-03-11T13:11:26.060Z,15.30
2018-03-11T13:13:53.083Z,15.10
2018-03-11T13:16:20.162Z,15.30
2018-03-11T13:18:47.174Z,15.20
2018-03-11T13:21:14.242Z,15.30
2018-03-11T13:23:41.286Z,15.20
2018-03-11T13:26:08.317Z,15.20
2018-03-11T13:31:23.473Z,15.30
2018-03-11T13:34:02.423Z,15.30
2018-03-11T13:36:29.445Z,15.30
2018-03-11T13:39:08.406Z,15.30
2018-03-11T13:41:35.442Z,15.20
2018-03-11T13:44:02.471Z,15.20
2018-03-11T13:46:41.412Z,15.30
2018-03-11T13:52:01.489Z,15.40
2018-03-11T13:54:28.791Z,15.60
2018-03-11T13:57:08.246Z,15.70
2018-03-11T13:59:36.288Z,15.60
2018-03-11T14:02:04.209Z,15.70
2018-03-11T14:04:31.278Z,15.80
2018-03-11T14:06:58.315Z,15.60
2018-03-11T14:09:25.340Z,15.50
2018-03-11T14:11:52.422Z,15.60
2018-03-11T14:14:19.445Z,15.70
2018-03-11T14:16:46.477Z,15.50
2018-03-11T14:19:13.566Z,15.20
2018-03-11T14:24:18.754Z,15.20
2018-03-11T14:26:45.780Z,15.10
2018-03-11T14:29:12.816Z,15.40
2018-03-11T14:31:39.885Z,15.30
2018-03-11T14:34:07.365Z,15.20
2018-03-11T14:36:35.304Z,15.10
2018-03-11T14:39:03.338Z,15.00
2018-03-11T14:41:32.606Z,14.90
2018-03-11T14:43:58.195Z,14.90
2018-03-11T14:46:25.261Z,15.00
2018-03-11T14:48:52.301Z,14.80
2018-03-11T14:58:42.697Z,14.50
2018-03-11T15:01:10.089Z,14.60
2018-03-11T15:03:37.105Z,14.60
2018-03-11T15:06:04.482Z,14.60
2018-03-11T15:10:59.464Z,14.70
2018-03-11T15:13:26.489Z,14.50
2018-03-11T15:15:53.569Z,14.60
2018-03-11T15:18:20.593Z,14.70
2018-03-11T15:20:47.609Z,14.70
2018-03-11T15:23:14.685Z,14.50
2018-03-11T15:25:41.711Z,14.50
2018-03-11T15:30:40.794Z,14.20
2018-03-11T15:33:07.833Z,14.50
2018-03-11T15:35:35.603Z,14.50
2018-03-11T15:38:02.680Z,14.50
2018-03-11T15:40:29.714Z,14.80
2018-03-11T15:42:56.739Z,15.00
2018-03-11T15:48:03.796Z,15.10
2018-03-11T15:50:30.868Z,15.20
2018-03-11T15:52:57.897Z,15.20
2018-03-11T15:55:24.920Z,15.30
2018-03-11T15:57:51.986Z,15.60
2018-03-11T16:00:19.020Z,15.50
2018-03-11T16:02:46.045Z,15.00
2018-03-11T16:05:13.122Z,14.90
2018-03-11T16:07:40.140Z,15.00
2018-03-11T16:10:07.164Z,15.10
2018-03-11T16:12:35.182Z,15.10
2018-03-11T16:15:03.193Z,15.10
2018-03-11T16:17:30.173Z,15.10
2018-03-11T16:19:57.240Z,15.00
2018-03-11T16:22:24.582Z,14.70
2018-03-11T16:24:51.614Z,14.80
2018-03-11T16:27:19.665Z,14.80
2018-03-11T16:29:46.677Z,14.40
2018-03-11T16:32:13.711Z,14.50
2018-03-11T16:34:40.781Z,14.30
2018-03-11T16:37:08.781Z,14.20
2018-03-11T16:39:35.836Z,14.20
2018-03-11T16:42:02.918Z,14.20
2018-03-11T16:44:30.954Z,14.20
2018-03-11T16:46:57.993Z,14.10
2018-03-11T16:49:25.094Z,14.10
2018-03-11T16:51:52.142Z,13.90
2018-03-11T16:56:46.383Z,13.80
2018-03-11T16:59:13.417Z,13.90
2018-03-11T17:01:40.454Z,14.00
2018-03-11T17:04:07.542Z,14.10
2018-03-11T17:06:34.609Z,14.20
2018-03-11T17:09:01.639Z,14.00
2018-03-11T17:11:28.761Z,13.90
2018-03-11T17:16:34.322Z,14.00
2018-03-11T17:21:40.405Z,13.90
2018-03-11T17:24:07.509Z,13.90
2018-03-11T17:26:34.468Z,13.90
2018-03-11T17:29:01.613Z,13.90
2018-03-11T17:31:28.643Z,13.80
2018-03-11T17:36:22.815Z,13.70
2018-03-11T17:38:49.827Z,13.60
2018-03-11T17:41:16.849Z,13.70
2018-03-11T17:43:43.937Z,13.60
2018-03-11T17:46:10.944Z,13.70
2018-03-11T17:48:37.967Z,13.70
2018-03-11T17:51:05.041Z,13.40
2018-03-11T17:53:32.060Z,13.50
2018-03-11T17:55:59.110Z,13.70
2018-03-11T17:58:26.184Z,13.70
2018-03-11T18:00:53.213Z,13.60
2018-03-11T18:03:20.236Z,13.60
2018-03-11T18:05:49.155Z,13.50
2018-03-11T18:08:16.172Z,13.50
2018-03-11T18:10:43.192Z,13.50
2018-03-11T18:13:10.274Z,13.50
2018-03-11T18:15:37.289Z,13.50
2018-03-11T18:18:05.255Z,13.40
2018-03-11T18:20:33.290Z,13.40
2018-03-11T18:23:00.321Z,13.30
2018-03-11T18:25:27.359Z,13.30
2018-03-11T18:27:54.482Z,13.20
2018-03-11T18:30:22.798Z,13.30
2018-03-11T18:32:49.822Z,13.00
2018-03-11T18:35:16.898Z,13.10
2018-03-11T18:37:43.924Z,13.10
2018-03-11T18:40:11.808Z,13.20
2018-03-11T18:47:55.859Z,13.20
2018-03-11T18:50:23.729Z,13.30
2018-03-11T18:52:50.761Z,13.20
2018-03-11T18:55:17.857Z,13.00
2018-03-11T18:57:44.884Z,13.20
2018-03-11T19:00:11.936Z,13.20
2018-03-11T19:02:39.016Z,13.10
2018-03-11T19:05:06.048Z,13.20
2018-03-11T19:07:33.089Z,13.30
2018-03-11T19:10:00.174Z,13.30
2018-03-11T19:12:27.215Z,13.30
2018-03-11T19:19:48.553Z,13.40
2018-03-11T19:22:15.576Z,13.20
2018-03-11T19:24:42.660Z,13.30
2018-03-11T19:29:36.910Z,13.30
2018-03-11T19:32:04.012Z,13.30
2018-03-11T19:34:31.042Z,13.30
2018-03-11T19:36:58.058Z,13.20
2018-03-11T19:39:25.144Z,13.30
2018-03-11T19:41:52.171Z,13.30
2018-03-11T19:44:19.207Z,13.40
2018-03-11T19:46:46.290Z,13.20
2018-03-11T19:49:13.325Z,13.20
2018-03-11T19:51:40.874Z,13.00
2018-03-11T19:54:07.947Z,12.90
2018-03-11T19:56:35.057Z,13.00
2018-03-11T19:59:02.098Z,13.10
2018-03-11T20:01:29.176Z,13.10
2018-03-11T20:06:37.127Z,13.10
2018-03-11T20:09:04.117Z,13.10
2018-03-11T20:11:31.129Z,13.20
2018-03-11T20:13:58.199Z,13.20
2018-03-11T20:16:25.242Z,13.20
2018-03-11T20:18:52.262Z,13.20
2018-03-11T20:21:19.374Z,13.10
2018-03-11T20:26:13.582Z,13.00
2018-03-11T20:28:41.479Z,12.80
2018-03-11T20:31:08.501Z,12.80
2018-03-11T20:33:35.527Z,12.80
2018-03-11T20:36:02.624Z,12.70
2018-03-11T20:38:29.641Z,12.60
2018-03-11T20:40:56.660Z,12.60
2018-03-11T20:43:23.747Z,12.60
2018-03-11T20:45:50.766Z,12.70
2018-03-11T20:48:17.878Z,12.70
2018-03-11T20:50:44.888Z,12.60
2018-03-11T20:53:12.028Z,12.40
2018-03-11T20:55:39.399Z,12.50
2018-03-11T20:58:06.434Z,12.60
2018-03-11T21:00:33.450Z,12.50
2018-03-11T21:03:00.540Z,12.40
2018-03-11T21:05:27.566Z,12.20
2018-03-11T21:07:54.606Z,12.30
2018-03-11T21:10:21.710Z,12.30
2018-03-11T21:15:15.880Z,12.20
2018-03-11T21:17:43.943Z,12.10
2018-03-11T21:20:10.973Z,12.10
2018-03-11T21:22:38.268Z,12.00
2018-03-11T21:25:05.347Z,12.10
2018-03-11T21:30:10.920Z,12.00
2018-03-11T21:32:37.936Z,12.00
2018-03-11T21:35:04.958Z,11.90
2018-03-11T21:37:32.039Z,11.90
2018-03-11T21:39:59.066Z,12.00
2018-03-11T21:42:26.117Z,11.90
2018-03-11T21:44:53.207Z,11.90
2018-03-11T21:47:20.220Z,11.80
2018-03-11T21:49:47.336Z,11.90
2018-03-11T21:52:15.116Z,11.70
2018-03-11T21:54:42.131Z,11.60
2018-03-11T21:57:09.151Z,11.60
2018-03-11T21:59:36.238Z,11.70
2018-03-11T22:02:03.234Z,11.80
2018-03-11T22:04:30.266Z,11.80
2018-03-11T22:06:57.354Z,11.80
2018-03-11T22:09:24.377Z,11.50
2018-03-11T22:11:51.400Z,11.20
2018-03-11T22:14:18.467Z,11.40
2018-03-11T22:16:45.495Z,11.40
2018-03-11T22:19:12.526Z,11.50
2018-03-11T22:21:39.610Z,11.30
2018-03-11T22:24:06.635Z,11.20
2018-03-11T22:26:33.663Z,11.20
2018-03-11T22:29:00.744Z,11.10
2018-03-11T22:31:27.776Z,11.30
2018-03-11T22:33:54.798Z,11.40
2018-03-11T22:36:21.883Z,11.40
2018-03-11T22:38:48.950Z,11.10
2018-03-11T22:41:15.968Z,11.10
2018-03-11T22:43:43.043Z,10.80
2018-03-11T22:46:10.110Z,10.90
2018-03-11T22:53:32.377Z,13.20
2018-03-11T22:55:59.463Z,10.70
2018-03-11T22:58:26.424Z,10.90
2018-03-11T23:00:53.494Z,10.80
2018-03-11T23:03:20.527Z,10.70
2018-03-11T23:05:47.570Z,10.60
2018-03-11T23:08:14.653Z,10.60
2018-03-11T23:10:41.694Z,10.00
2018-03-11T23:13:08.753Z,10.00
2018-03-11T23:15:35.844Z,9.90
2018-03-11T23:18:02.867Z,9.50
2018-03-11T23:20:30.277Z,9.60
2018-03-11T23:25:47.312Z,9.50
2018-03-11T23:28:17.376Z,9.70
2018-03-11T23:30:44.414Z,9.70
2018-03-11T23:33:11.516Z,9.80
2018-03-11T23:35:38.568Z,10.20
2018-03-11T23:38:06.621Z,10.50
2018-03-11T23:40:33.642Z,10.70
2018-03-11T23:43:00.730Z,10.70
2018-03-11T23:45:27.761Z,10.80
2018-03-11T23:47:54.827Z,10.60
2018-03-11T23:50:21.898Z,10.60
2018-03-11T23:52:48.926Z,10.20
2018-03-11T23:55:15.980Z,10.00
